createdAt,value
2022-12-25T00:01:48.675Z,17.27
2022-12-25T00:04:15.299Z,16.95
2022-12-25T00:06:41.932Z,22.93
2022-12-25T00:09:08.482Z,21.33
2022-12-25T00:11:35.205Z,18.58
2022-12-25T00:14:01.776Z,15.07
2022-12-25T00:16:28.409Z,16.98
2022-12-25T00:18:57.015Z,15.80
2022-12-25T00:21:23.515Z,15.02
2022-12-25T00:23:58.248Z,19.55
2022-12-25T00:26:26.015Z,18.45
2022-12-25T00:28:54.187Z,13.07
2022-12-25T00:31:22.233Z,14.93
2022-12-25T00:33:50.416Z,20.30
2022-12-25T00:36:19.089Z,16.30
2022-12-25T00:38:47.500Z,17.40
2022-12-25T00:41:18.215Z,15.15
2022-12-25T00:43:44.810Z,13.73
2022-12-25T00:46:12.800Z,13.00
2022-12-25T00:48:39.569Z,12.27
2022-12-25T00:51:09.386Z,12.90
2022-12-25T00:53:36.407Z,11.13
2022-12-25T00:56:05.704Z,20.30
2022-12-25T00:58:33.640Z,17.92
2022-12-25T01:01:00.702Z,11.00
2022-12-25T01:03:27.405Z,20.05
2022-12-25T01:05:57.128Z,8.98
2022-12-25T01:08:24.081Z,22.70
2022-12-25T01:10:58.945Z,15.00
2022-12-25T01:13:26.022Z,14.43
2022-12-25T01:15:52.759Z,12.00
2022-12-25T01:18:23.385Z,11.45
2022-12-25T01:20:50.027Z,20.50
2022-12-25T01:23:17.177Z,13.70
2022-12-25T01:25:43.786Z,16.15
2022-12-25T01:28:10.378Z,15.50
2022-12-25T01:30:36.868Z,15.07
2022-12-25T01:33:03.648Z,11.17
2022-12-25T01:35:30.167Z,15.77
2022-12-25T01:37:56.938Z,18.17
2022-12-25T01:40:23.531Z,9.27
2022-12-25T01:42:50.095Z,11.90
2022-12-25T01:45:32.249Z,11.13
2022-12-25T01:47:59.854Z,18.55
2022-12-25T01:50:27.739Z,11.15
2022-12-25T01:52:55.478Z,15.60
2022-12-25T01:55:22.498Z,19.33
2022-12-25T01:57:49.604Z,14.97
2022-12-25T02:00:16.316Z,10.82
2022-12-25T02:02:44.699Z,16.30
2022-12-25T02:05:29.331Z,12.68
2022-12-25T02:07:57.006Z,9.70
2022-12-25T02:10:23.762Z,11.50
2022-12-25T02:12:51.143Z,13.73
2022-12-25T02:15:20.773Z,8.93
2022-12-25T02:18:25.504Z,12.50
2022-12-25T02:21:19.648Z,14.52
2022-12-25T02:24:00.131Z,11.97
2022-12-25T02:26:41.809Z,11.00
2022-12-25T02:29:38.018Z,11.52
2022-12-25T02:32:16.410Z,10.73
2022-12-25T02:35:10.788Z,13.45
2022-12-25T02:37:49.676Z,10.10
2022-12-25T02:40:20.619Z,16.02
2022-12-25T02:43:15.938Z,10.15
2022-12-25T02:46:06.667Z,11.25
2022-12-25T02:48:55.958Z,12.80
2022-12-25T02:51:46.102Z,10.70
2022-12-25T02:54:36.058Z,10.23
2022-12-25T02:57:26.633Z,9.32
2022-12-25T03:00:15.214Z,13.18
2022-12-25T03:03:02.940Z,12.02
2022-12-25T03:05:51.553Z,12.53
2022-12-25T03:08:24.666Z,10.02
2022-12-25T03:11:18.264Z,16.13
2022-12-25T03:13:49.044Z,11.95
2022-12-25T03:16:34.337Z,15.00
2022-12-25T03:19:21.181Z,13.23
2022-12-25T03:22:06.334Z,14.55
2022-12-25T03:24:51.962Z,18.40
2022-12-25T03:27:18.685Z,11.40
2022-12-25T03:30:03.708Z,12.30
2022-12-25T03:32:51.834Z,14.90
2022-12-25T03:35:29.049Z,11.32
2022-12-25T03:38:23.258Z,16.40
2022-12-25T03:41:37.712Z,15.40
2022-12-25T03:44:22.498Z,14.57
2022-12-25T03:47:28.489Z,10.20
2022-12-25T03:50:36.751Z,9.32
2022-12-25T03:53:25.879Z,10.85
2022-12-25T03:56:11.841Z,10.23
2022-12-25T03:58:56.623Z,11.80
2022-12-25T04:01:41.756Z,9.03
2022-12-25T04:04:26.852Z,12.82
2022-12-25T04:07:12.021Z,9.00
2022-12-25T04:09:56.883Z,12.88
2022-12-25T04:12:41.848Z,10.73
2022-12-25T04:15:27.874Z,9.87
2022-12-25T04:18:12.940Z,11.85
2022-12-25T04:20:58.130Z,6.35
2022-12-25T04:23:43.183Z,11.32
2022-12-25T04:26:28.132Z,11.05
2022-12-25T04:29:13.109Z,8.17
2022-12-25T04:31:58.209Z,10.50
2022-12-25T04:34:43.284Z,12.77
2022-12-25T04:37:10.017Z,9.32
2022-12-25T04:39:36.451Z,10.75
2022-12-25T04:42:03.040Z,9.57
2022-12-25T04:44:29.583Z,8.13
2022-12-25T04:46:56.310Z,8.02
2022-12-25T04:49:22.832Z,7.53
2022-12-25T04:51:49.270Z,11.68
2022-12-25T04:54:16.146Z,13.03
2022-12-25T04:56:45.755Z,9.85
2022-12-25T04:59:12.830Z,13.13
2022-12-25T05:01:40.082Z,12.05
2022-12-25T05:04:07.034Z,7.57
2022-12-25T05:06:33.661Z,7.60
2022-12-25T05:09:00.126Z,6.82
2022-12-25T05:11:27.608Z,13.07
2022-12-25T05:13:54.084Z,7.70
2022-12-25T05:16:21.026Z,11.38
2022-12-25T05:18:51.973Z,7.67
2022-12-25T05:21:19.194Z,15.02
2022-12-25T05:23:48.991Z,4.60
2022-12-25T05:26:17.310Z,13.95
2022-12-25T05:28:43.811Z,9.00
2022-12-25T05:31:10.650Z,8.53
2022-12-25T05:33:37.475Z,9.02
2022-12-25T05:36:05.765Z,5.80
2022-12-25T05:38:33.044Z,6.10
2022-12-25T05:40:59.633Z,5.57
2022-12-25T05:43:27.366Z,6.87
2022-12-25T05:45:54.008Z,8.32
2022-12-25T05:48:20.573Z,5.85
2022-12-25T05:50:47.453Z,7.50
2022-12-25T05:53:15.862Z,10.18
2022-12-25T05:55:46.453Z,8.13
2022-12-25T05:58:13.765Z,11.27
2022-12-25T06:00:43.513Z,6.78
2022-12-25T06:03:10.006Z,9.20
2022-12-25T06:05:38.991Z,7.85
2022-12-25T06:08:06.247Z,5.53
2022-12-25T06:10:32.764Z,6.18
2022-12-25T06:12:59.348Z,7.32
2022-12-25T06:15:25.807Z,7.13
2022-12-25T06:17:52.367Z,9.35
2022-12-25T06:20:18.940Z,3.83
2022-12-25T06:22:45.587Z,10.13
2022-12-25T06:25:12.256Z,7.13
2022-12-25T06:27:38.849Z,5.45
2022-12-25T06:30:06.203Z,10.55
2022-12-25T06:32:32.768Z,6.83
2022-12-25T06:34:59.264Z,13.43
2022-12-25T06:37:25.806Z,6.63
2022-12-25T06:39:52.323Z,5.45
2022-12-25T06:42:18.916Z,6.05
2022-12-25T06:44:45.444Z,10.20
2022-12-25T06:47:11.959Z,6.53
2022-12-25T06:49:38.406Z,6.50
2022-12-25T06:52:05.040Z,6.32
2022-12-25T06:54:31.561Z,10.70
2022-12-25T06:56:58.087Z,6.50
2022-12-25T06:59:24.976Z,8.27
2022-12-25T07:01:57.367Z,5.63
2022-12-25T07:04:26.893Z,8.38
2022-12-25T07:06:53.462Z,3.97
2022-12-25T07:09:20.037Z,6.47
2022-12-25T07:11:46.705Z,4.50
2022-12-25T07:14:24.525Z,4.88
2022-12-25T07:16:51.559Z,8.57
2022-12-25T07:19:19.324Z,6.57
2022-12-25T07:21:46.333Z,5.43
2022-12-25T07:24:17.704Z,7.95
2022-12-25T07:26:44.217Z,5.80
2022-12-25T07:29:10.754Z,8.50
2022-12-25T07:31:37.919Z,4.45
2022-12-25T07:34:04.719Z,5.30
2022-12-25T07:36:31.263Z,10.95
2022-12-25T07:38:57.911Z,5.57
2022-12-25T07:41:24.540Z,4.78
2022-12-25T07:43:52.962Z,9.20
2022-12-25T07:46:21.185Z,4.10
2022-12-25T07:48:47.846Z,6.30
2022-12-25T07:51:16.165Z,10.05
2022-12-25T07:53:43.169Z,3.55
2022-12-25T07:56:15.943Z,5.13
2022-12-25T07:58:43.008Z,4.83
2022-12-25T08:01:22.396Z,7.85
2022-12-25T08:03:54.334Z,3.38
2022-12-25T08:06:22.244Z,4.35
2022-12-25T08:08:48.947Z,3.92
2022-12-25T08:11:15.606Z,5.27
2022-12-25T08:13:42.165Z,4.80
2022-12-25T08:16:10.554Z,4.40
2022-12-25T08:18:38.288Z,12.60
2022-12-25T08:21:10.866Z,6.20
2022-12-25T08:23:39.605Z,4.20
2022-12-25T08:26:08.705Z,6.43
2022-12-25T08:28:35.726Z,6.60
2022-12-25T08:31:15.934Z,5.97
2022-12-25T08:33:42.529Z,6.38
2022-12-25T08:36:10.705Z,5.30
2022-12-25T08:38:37.993Z,7.10
2022-12-25T08:41:05.193Z,4.15
2022-12-25T08:43:31.737Z,5.75
2022-12-25T08:45:58.275Z,4.30
2022-12-25T08:48:25.189Z,4.40
2022-12-25T08:50:52.951Z,7.95
2022-12-25T08:53:19.809Z,5.05
2022-12-25T08:55:46.438Z,8.68
2022-12-25T08:58:14.402Z,11.07
2022-12-25T09:00:41.548Z,5.87
2022-12-25T09:03:08.387Z,4.38
2022-12-25T09:05:36.563Z,4.68
2022-12-25T09:08:03.315Z,5.90
2022-12-25T09:10:30.139Z,4.25
2022-12-25T09:12:57.011Z,3.37
2022-12-25T09:15:23.672Z,4.20
2022-12-25T09:17:50.113Z,6.13
2022-12-25T09:20:16.619Z,3.67
2022-12-25T09:22:43.125Z,5.38
2022-12-25T09:25:09.951Z,4.60
2022-12-25T09:27:37.362Z,5.50
2022-12-25T09:30:05.042Z,4.75
2022-12-25T09:32:31.815Z,6.03
2022-12-25T09:34:58.337Z,3.47
2022-12-25T09:37:24.888Z,6.40
2022-12-25T09:39:51.664Z,5.93
2022-12-25T09:42:22.057Z,5.90
2022-12-25T09:45:28.586Z,3.67
2022-12-25T09:47:57.036Z,4.70
2022-12-25T09:50:58.795Z,5.10
2022-12-25T09:53:29.408Z,5.43
2022-12-25T09:56:12.601Z,4.03
2022-12-25T09:58:39.310Z,3.88
2022-12-25T10:01:31.981Z,3.67
2022-12-25T10:04:06.201Z,2.73
2022-12-25T10:06:32.650Z,3.80
2022-12-25T10:09:18.133Z,5.07
2022-12-25T10:12:03.408Z,5.93
2022-12-25T10:14:47.842Z,5.03
2022-12-25T10:17:32.747Z,3.97
2022-12-25T10:20:02.272Z,5.07
2022-12-25T10:22:40.804Z,3.88
2022-12-25T10:25:17.865Z,6.70
2022-12-25T10:27:44.685Z,5.95
2022-12-25T10:30:17.228Z,3.23
2022-12-25T10:32:45.262Z,5.22
2022-12-25T10:35:17.042Z,4.13
2022-12-25T10:37:46.514Z,4.60
2022-12-25T10:40:31.184Z,6.88
2022-12-25T10:43:07.309Z,3.53
2022-12-25T10:45:43.727Z,3.53
2022-12-25T10:48:18.649Z,3.05
2022-12-25T10:50:45.166Z,3.53
2022-12-25T10:53:19.720Z,3.83
2022-12-25T10:56:04.339Z,4.33
2022-12-25T10:58:32.736Z,6.97
2022-12-25T11:01:05.748Z,6.65
2022-12-25T11:03:39.058Z,4.20
2022-12-25T11:06:07.477Z,8.18
2022-12-25T11:08:35.120Z,5.57
2022-12-25T11:11:08.867Z,5.45
2022-12-25T11:13:40.308Z,6.10
2022-12-25T11:16:27.116Z,5.45
2022-12-25T11:18:54.478Z,5.38
2022-12-25T11:21:25.551Z,9.63
2022-12-25T11:24:01.189Z,7.82
2022-12-25T11:26:30.601Z,13.50
2022-12-25T11:28:58.282Z,5.82
2022-12-25T11:31:40.945Z,7.25
2022-12-25T11:34:24.651Z,8.37
2022-12-25T11:36:52.509Z,6.35
2022-12-25T11:39:25.115Z,8.90
2022-12-25T11:41:58.000Z,4.97
2022-12-25T11:44:33.832Z,6.38
2022-12-25T11:47:12.723Z,4.50
2022-12-25T11:49:49.712Z,9.35
2022-12-25T11:52:18.987Z,4.75
2022-12-25T11:54:56.886Z,6.72
2022-12-25T11:57:27.499Z,8.02
2022-12-25T12:00:00.287Z,5.30
2022-12-25T12:02:36.720Z,8.13
2022-12-25T12:05:18.954Z,13.38
2022-12-25T12:08:01.723Z,7.35
2022-12-25T12:10:44.511Z,8.73
2022-12-25T12:13:33.568Z,13.67
2022-12-25T12:16:00.350Z,18.63
2022-12-25T12:18:26.826Z,10.77
2022-12-25T12:21:20.763Z,11.65
2022-12-25T12:24:07.641Z,9.95
2022-12-25T12:26:38.155Z,10.73
2022-12-25T12:29:08.034Z,10.00
2022-12-25T12:31:43.360Z,7.50
2022-12-25T12:34:28.121Z,8.52
2022-12-25T12:37:05.526Z,6.63
2022-12-25T12:39:36.812Z,7.13
2022-12-25T12:42:13.910Z,6.80
2022-12-25T12:44:40.622Z,5.25
2022-12-25T12:47:27.620Z,7.32
2022-12-25T12:50:01.435Z,5.95
2022-12-25T12:52:38.749Z,7.53
2022-12-25T12:55:08.749Z,5.20
2022-12-25T12:57:39.971Z,9.10
2022-12-25T13:00:18.204Z,8.48
2022-12-25T13:03:15.598Z,11.38
2022-12-25T13:05:48.122Z,6.03
2022-12-25T13:08:42.091Z,6.63
2022-12-25T13:11:19.612Z,5.45
2022-12-25T13:13:48.585Z,7.25
2022-12-25T13:16:19.681Z,5.50
2022-12-25T13:18:46.654Z,7.23
2022-12-25T13:21:20.645Z,9.95
2022-12-25T13:23:47.332Z,9.13
2022-12-25T13:26:17.954Z,6.68
2022-12-25T13:28:46.721Z,7.32
2022-12-25T13:31:17.972Z,8.87
2022-12-25T13:33:57.984Z,6.78
2022-12-25T13:36:29.535Z,5.40
2022-12-25T13:38:58.673Z,4.78
2022-12-25T13:41:49.033Z,7.07
2022-12-25T13:44:22.627Z,6.13
2022-12-25T13:46:49.505Z,5.93
2022-12-25T13:49:18.780Z,6.65
2022-12-25T13:51:46.515Z,6.43
2022-12-25T13:54:15.671Z,5.70
2022-12-25T13:56:56.056Z,7.67
2022-12-25T13:59:25.373Z,6.85
2022-12-25T14:01:54.150Z,9.65
2022-12-25T14:04:23.053Z,5.65
2022-12-25T14:06:51.704Z,8.18
2022-12-25T14:09:19.302Z,7.43
2022-12-25T14:11:52.227Z,7.88
2022-12-25T14:14:23.282Z,10.15
2022-12-25T14:16:53.469Z,8.77
2022-12-25T14:19:34.064Z,8.40
2022-12-25T14:22:17.487Z,7.33
2022-12-25T14:24:44.160Z,15.07
2022-12-25T14:27:23.232Z,16.10
2022-12-25T14:29:53.108Z,9.95
2022-12-25T14:32:25.136Z,9.45
2022-12-25T14:34:56.936Z,7.73
2022-12-25T14:37:28.210Z,7.68
2022-12-25T14:40:18.691Z,8.27
2022-12-25T14:42:58.296Z,7.60
2022-12-25T14:45:26.554Z,7.18
2022-12-25T14:47:55.366Z,12.00
2022-12-25T14:50:41.286Z,11.13
2022-12-25T14:53:19.790Z,12.52
2022-12-25T14:55:52.526Z,9.70
2022-12-25T14:58:26.491Z,12.05
2022-12-25T15:00:56.624Z,12.03
2022-12-25T15:03:27.735Z,11.20
2022-12-25T15:06:05.720Z,9.45
2022-12-25T15:08:34.700Z,10.38
2022-12-25T15:11:02.999Z,11.57
2022-12-25T15:13:31.451Z,9.40
2022-12-25T15:16:04.379Z,11.32
2022-12-25T15:18:36.750Z,9.38
2022-12-25T15:21:03.368Z,9.40
2022-12-25T15:23:30.036Z,12.57
2022-12-25T15:25:56.527Z,12.43
2022-12-25T15:28:22.978Z,9.35
2022-12-25T15:30:50.018Z,10.00
2022-12-25T15:33:18.507Z,7.35
2022-12-25T15:35:45.803Z,10.30
2022-12-25T15:38:13.502Z,18.43
2022-12-25T15:40:40.731Z,15.40
2022-12-25T15:43:14.557Z,18.30
2022-12-25T15:45:55.348Z,15.18
2022-12-25T15:48:21.892Z,14.95
2022-12-25T15:50:49.411Z,12.63
2022-12-25T15:53:15.901Z,13.27
2022-12-25T15:55:42.408Z,11.48
2022-12-25T15:58:13.120Z,11.43
2022-12-25T16:00:39.639Z,12.15
2022-12-25T16:03:06.287Z,12.30
2022-12-25T16:05:32.846Z,10.75
2022-12-25T16:07:59.461Z,10.10
2022-12-25T16:10:26.091Z,12.95
2022-12-25T16:12:52.608Z,12.70
2022-12-25T16:15:19.130Z,11.37
2022-12-25T16:17:45.712Z,14.25
2022-12-25T16:20:12.607Z,12.45
2022-12-25T16:22:41.734Z,16.98
2022-12-25T16:25:19.153Z,13.77
2022-12-25T16:27:46.410Z,13.73
2022-12-25T16:30:15.492Z,15.10
2022-12-25T16:32:42.938Z,15.38
2022-12-25T16:35:10.932Z,12.65
2022-12-25T16:37:39.060Z,13.35
2022-12-25T16:40:07.229Z,11.50
2022-12-25T16:42:34.176Z,8.88
2022-12-25T16:45:00.661Z,12.18
2022-12-25T16:47:27.256Z,13.98
2022-12-25T16:49:53.740Z,11.93
2022-12-25T16:52:20.265Z,10.97
2022-12-25T16:54:46.953Z,14.07
2022-12-25T16:57:14.619Z,14.07
2022-12-25T16:59:41.720Z,13.23
2022-12-25T17:02:15.055Z,11.70
2022-12-25T17:04:41.686Z,12.33
2022-12-25T17:07:08.188Z,11.93
2022-12-25T17:09:40.417Z,16.00
2022-12-25T17:12:10.354Z,16.58
2022-12-25T17:14:36.871Z,15.80
2022-12-25T17:17:03.722Z,17.67
2022-12-25T17:19:30.336Z,12.40
2022-12-25T17:21:57.319Z,14.75
2022-12-25T17:24:23.879Z,18.38
2022-12-25T17:26:50.377Z,16.13
2022-12-25T17:29:21.651Z,16.90
2022-12-25T17:31:48.859Z,19.30
2022-12-25T17:34:15.475Z,19.27
2022-12-25T17:36:42.067Z,17.92
2022-12-25T17:39:11.096Z,18.92
2022-12-25T17:41:37.924Z,16.67
2022-12-25T17:44:04.724Z,12.32
2022-12-25T17:46:31.426Z,24.35
2022-12-25T17:48:59.788Z,25.38
2022-12-25T17:51:28.306Z,19.45
2022-12-25T17:53:59.926Z,17.53
2022-12-25T17:56:26.836Z,20.77
2022-12-25T17:58:56.027Z,18.17
2022-12-25T18:01:25.021Z,21.17
2022-12-25T18:03:52.264Z,27.35
2022-12-25T18:06:21.588Z,32.83
2022-12-25T18:08:48.265Z,28.73
2022-12-25T18:11:18.150Z,30.50
2022-12-25T18:13:48.286Z,49.95
2022-12-25T18:16:15.967Z,28.10
2022-12-25T18:18:47.955Z,42.73
2022-12-25T18:21:18.452Z,34.30
2022-12-25T18:23:46.257Z,67.10
2022-12-25T18:26:12.991Z,35.88
2022-12-25T18:28:40.030Z,89.45
2022-12-25T18:31:10.670Z,36.10
2022-12-25T18:33:37.240Z,22.73
2022-12-25T18:36:04.141Z,26.63
2022-12-25T18:38:30.855Z,25.73
2022-12-25T18:40:57.987Z,30.88
2022-12-25T18:43:52.654Z,25.17
2022-12-25T18:46:11.711Z,25.73
2022-12-25T18:48:39.475Z,20.20
2022-12-25T18:51:08.395Z,23.65
2022-12-25T18:53:35.953Z,15.63
2022-12-25T18:56:09.422Z,20.90
2022-12-25T18:58:37.868Z,15.48
2022-12-25T19:01:19.612Z,18.67
2022-12-25T19:03:46.679Z,14.68
2022-12-25T19:06:25.010Z,33.72
2022-12-25T19:08:51.703Z,14.77
2022-12-25T19:11:19.337Z,13.88
2022-12-25T19:13:45.984Z,12.98
2022-12-25T19:16:13.158Z,14.05
2022-12-25T19:18:40.440Z,25.02
2022-12-25T19:21:08.803Z,23.13
2022-12-25T19:23:37.716Z,24.45
2022-12-25T19:26:05.915Z,21.63
2022-12-25T19:28:32.551Z,15.60
2022-12-25T19:31:00.428Z,19.45
2022-12-25T19:33:27.124Z,18.27
2022-12-25T19:35:53.658Z,17.25
2022-12-25T19:38:20.372Z,17.65
2022-12-25T19:41:00.563Z,33.40
2022-12-25T19:43:36.230Z,22.63
2022-12-25T19:46:03.568Z,15.93
2022-12-25T19:48:31.833Z,25.52
2022-12-25T19:50:58.866Z,14.05
2022-12-25T19:53:25.746Z,16.75
2022-12-25T19:55:53.704Z,13.63
2022-12-25T19:58:22.417Z,11.10
2022-12-25T20:01:05.528Z,11.15
2022-12-25T20:03:33.596Z,9.68
2022-12-25T20:06:01.078Z,10.40
2022-12-25T20:08:28.023Z,9.85
2022-12-25T20:10:54.883Z,9.40
2022-12-25T20:13:21.484Z,8.38
2022-12-25T20:15:48.518Z,10.73
2022-12-25T20:18:15.053Z,12.65
2022-12-25T20:20:42.536Z,7.65
2022-12-25T20:23:09.960Z,10.90
2022-12-25T20:25:42.762Z,9.38
2022-12-25T20:28:09.619Z,9.82
2022-12-25T20:30:39.860Z,9.68
2022-12-25T20:33:06.451Z,7.82
2022-12-25T20:35:33.111Z,8.17
2022-12-25T20:37:59.565Z,10.75
2022-12-25T20:40:26.063Z,9.75
2022-12-25T20:42:52.572Z,9.25
2022-12-25T20:45:19.050Z,10.63
2022-12-25T20:47:45.743Z,18.10
2022-12-25T20:50:12.255Z,26.90
2022-12-25T20:52:38.770Z,13.25
2022-12-25T20:55:05.814Z,12.05
2022-12-25T20:57:32.348Z,12.80
2022-12-25T20:59:58.876Z,11.70
2022-12-25T21:02:35.009Z,12.00
2022-12-25T21:05:03.126Z,13.43
2022-12-25T21:07:29.591Z,11.35
2022-12-25T21:09:56.093Z,20.75
2022-12-25T21:12:22.624Z,16.77
2022-12-25T21:14:49.190Z,15.85
2022-12-25T21:17:15.710Z,14.43
2022-12-25T21:19:42.309Z,12.95
2022-12-25T21:22:08.864Z,11.82
2022-12-25T21:24:35.573Z,12.57
2022-12-25T21:27:02.139Z,11.27
2022-12-25T21:29:28.641Z,12.18
2022-12-25T21:32:13.667Z,11.00
2022-12-25T21:34:40.442Z,12.13
2022-12-25T21:37:06.921Z,11.40
2022-12-25T21:39:33.568Z,14.20
2022-12-25T21:42:00.090Z,15.00
2022-12-25T21:44:26.685Z,13.25
2022-12-25T21:46:53.312Z,13.18
2022-12-25T21:49:39.868Z,12.37
2022-12-25T21:52:09.277Z,13.95
2022-12-25T21:54:36.420Z,10.25
2022-12-25T21:57:03.444Z,13.55
2022-12-25T21:59:29.942Z,12.48
2022-12-25T22:01:56.600Z,11.67
2022-12-25T22:04:23.630Z,12.90
2022-12-25T22:07:08.830Z,15.95
2022-12-25T22:09:35.361Z,18.38
2022-12-25T22:12:21.236Z,14.38
2022-12-25T22:14:54.047Z,13.53
2022-12-25T22:17:42.328Z,13.52
2022-12-25T22:20:15.840Z,10.82
2022-12-25T22:22:42.650Z,10.60
2022-12-25T22:25:09.684Z,9.27
2022-12-25T22:27:38.603Z,13.80
2022-12-25T22:30:07.410Z,14.38
2022-12-25T22:32:34.633Z,9.27
2022-12-25T22:35:01.218Z,9.13
2022-12-25T22:37:27.746Z,11.50
2022-12-25T22:39:54.266Z,9.03
2022-12-25T22:42:20.961Z,9.85
2022-12-25T22:44:47.453Z,7.07
2022-12-25T22:47:14.157Z,8.20
2022-12-25T22:49:40.802Z,8.18
2022-12-25T22:52:09.793Z,9.20
2022-12-25T22:54:37.183Z,10.13
2022-12-25T22:57:04.762Z,27.52
2022-12-25T22:59:32.925Z,13.07
2022-12-25T23:02:00.119Z,9.38
2022-12-25T23:04:27.391Z,10.20
2022-12-25T23:06:53.949Z,7.43
2022-12-25T23:09:24.768Z,7.22
2022-12-25T23:11:51.499Z,7.97
2022-12-25T23:14:36.522Z,7.05
2022-12-25T23:17:03.259Z,9.07
2022-12-25T23:19:48.337Z,6.60
2022-12-25T23:22:34.019Z,8.00
2022-12-25T23:25:19.173Z,8.10
2022-12-25T23:27:46.003Z,8.30
2022-12-25T23:30:15.978Z,6.20
2022-12-25T23:32:44.198Z,6.72
2022-12-25T23:35:11.633Z,8.35
2022-12-25T23:37:38.164Z,8.57
2022-12-25T23:40:05.348Z,7.63
2022-12-25T23:42:31.963Z,10.27
2022-12-25T23:44:58.490Z,6.88
2022-12-25T23:47:24.998Z,8.88
2022-12-25T23:49:51.530Z,9.30
2022-12-25T23:52:19.696Z,9.23
2022-12-25T23:54:47.062Z,8.57
2022-12-25T23:57:13.545Z,8.80
2022-12-25T23:59:40.006Z,9.25
